Time;durP1;ratioP1;P1;durP2;ratioP2;P2;SDS_P1;SDS_P2;PMS_P1;PMS_P2;Temp;Humidity;BMP_temperature;BMP_pressure;BME280_temperature;BME280_humidity;BME280_pressure;Samples;Min_cycle;Max_cycle;Signal;HPM_P1;HPM_P2
2022/07/24 00:00:32;;;;;;;13.70;9.95;;;;;;;23.92;67.11;99784.44;4255994;33;36096;-77
2022/07/24 00:03:18;;;;;;;13.93;10.60;;;;;;;23.64;67.97;99788.75;4262471;33;34657;-78
2022/07/24 00:06:06;;;;;;;12.18;9.82;;;;;;;24.07;66.21;99783.25;4258337;33;33799;-78
2022/07/24 00:08:52;;;;;;;14.30;10.05;;;;;;;23.45;68.57;99780.69;4255860;33;35508;-77
2022/07/24 00:11:39;;;;;;;12.73;10.73;;;;;;;23.65;67.91;99784.78;4253815;33;35679;-78
2022/07/24 00:14:25;;;;;;;14.20;10.70;;;;;;;23.31;70.48;99778.69;4253921;33;34650;-78
2022/07/24 00:17:11;;;;;;;16.37;10.82;;;;;;;23.21;72.10;99788.59;4254066;33;35287;-79
2022/07/24 00:19:58;;;;;;;13.98;11.18;;;;;;;23.09;73.40;99803.72;4258914;33;34566;-78
2022/07/24 00:22:44;;;;;;;13.70;11.85;;;;;;;23.03;74.43;99805.31;4257606;33;34874;-77
2022/07/24 00:25:30;;;;;;;14.65;11.75;;;;;;;22.90;75.60;99815.97;4261325;33;34592;-79
2022/07/24 00:28:16;;;;;;;13.25;11.23;;;;;;;22.79;76.23;99820.69;4255705;33;34867;-79
2022/07/24 00:31:03;;;;;;;16.67;10.40;;;;;;;22.73;76.48;99813.06;4234732;33;34709;-77
2022/07/24 00:33:49;;;;;;;13.02;9.77;;;;;;;22.87;76.30;99816.75;4256210;33;34989;-78
2022/07/24 00:36:35;;;;;;;15.52;9.68;;;;;;;22.77;75.95;99817.50;4255357;33;35772;-78
2022/07/24 00:39:22;;;;;;;15.32;10.45;;;;;;;22.98;73.96;99807.66;4267238;33;34140;-78
2022/07/24 00:42:08;;;;;;;10.98;9.27;;;;;;;22.58;75.52;99818.56;4253143;33;35418;-80
2022/07/24 00:44:55;;;;;;;14.40;10.35;;;;;;;22.84;74.30;99825.91;4262102;33;34678;-79
2022/07/24 00:47:41;;;;;;;16.85;10.32;;;;;;;22.83;74.63;99823.53;4256599;33;34798;-78
2022/07/24 00:50:27;;;;;;;12.23;10.07;;;;;;;22.75;75.09;99816.28;4260760;33;34251;-78
2022/07/24 00:53:13;;;;;;;13.75;10.55;;;;;;;22.98;74.27;99810.47;4256391;33;34223;-78
2022/07/24 00:56:00;;;;;;;16.12;10.77;;;;;;;22.71;75.31;99813.44;4257348;33;35049;-78
2022/07/24 00:58:47;;;;;;;15.40;10.32;;;;;;;22.96;74.61;99810.84;4256907;33;34170;-78
2022/07/24 01:01:33;;;;;;;13.27;9.68;;;;;;;22.76;75.56;99810.28;4256447;33;34359;-78
2022/07/24 01:04:20;;;;;;;13.15;9.98;;;;;;;22.88;75.01;99803.56;4262945;33;34644;-78
2022/07/24 01:07:07;;;;;;;13.45;10.25;;;;;;;22.95;74.64;99800.03;4250294;33;35611;-77
2022/07/24 01:09:54;;;;;;;12.15;8.88;;;;;;;23.07;73.64;99794.13;4253138;33;35093;-78
2022/07/24 01:12:40;;;;;;;11.23;9.07;;;;;;;23.35;72.37;99791.47;4255575;33;35192;-78
2022/07/24 01:15:26;;;;;;;11.85;9.02;;;;;;;23.43;70.58;99788.69;4264226;33;33697;-78
2022/07/24 01:18:13;;;;;;;15.60;9.23;;;;;;;23.28;71.43;99791.44;4255905;33;36084;-78
2022/07/24 01:20:59;;;;;;;12.95;9.13;;;;;;;23.71;68.39;99794.41;4256294;33;34317;-77
2022/07/24 01:23:45;;;;;;;14.38;8.50;;;;;;;23.34;69.75;99798.25;4256450;33;33811;-78
2022/07/24 01:26:31;;;;;;;12.73;8.27;;;;;;;23.15;69.26;99798.56;4260400;33;34730;-78
2022/07/24 01:29:18;;;;;;;12.57;7.22;;;;;;;22.90;70.21;99796.41;4264905;33;35065;-77
2022/07/24 01:32:05;;;;;;;12.07;8.82;;;;;;;23.66;66.79;99800.34;4265790;33;35705;-78
2022/07/24 01:34:51;;;;;;;10.80;7.25;;;;;;;23.25;68.34;99795.03;4258445;33;33925;-78
2022/07/24 01:37:37;;;;;;;12.93;7.70;;;;;;;23.81;65.53;99790.00;4256318;33;34785;-77
2022/07/24 01:40:24;;;;;;;10.70;7.62;;;;;;;23.99;64.39;99784.44;4260491;33;35886;-78
2022/07/24 01:43:11;;;;;;;10.20;7.37;;;;;;;23.98;64.51;99775.22;4254339;33;34345;-78
2022/07/24 01:45:57;;;;;;;9.65;7.37;;;;;;;24.58;61.84;99768.03;4256217;33;35204;-77
2022/07/24 01:48:43;;;;;;;13.57;8.10;;;;;;;24.54;62.27;99772.06;4254637;33;35534;-78
2022/07/24 01:51:30;;;;;;;12.60;8.13;;;;;;;24.47;62.18;99784.06;4242971;33;35035;-78
2022/07/24 01:54:16;;;;;;;11.35;7.60;;;;;;;24.35;62.99;99787.25;4254922;33;34163;-78
2022/07/24 01:57:03;;;;;;;10.85;7.72;;;;;;;24.44;62.73;99798.88;4265295;33;34924;-78
2022/07/24 01:59:51;;;;;;;11.68;7.93;;;;;;;24.66;61.11;99792.03;4252576;33;34309;-78
2022/07/24 02:02:38;;;;;;;13.15;8.20;;;;;;;24.55;62.33;99796.06;4263799;33;34945;-77
2022/07/24 02:05:24;;;;;;;11.40;8.10;;;;;;;24.57;62.98;99788.84;4263557;33;34234;-77
2022/07/24 02:08:11;;;;;;;11.50;8.25;;;;;;;24.59;65.21;99792.06;4268203;33;35146;-77
2022/07/24 02:10:57;;;;;;;12.75;9.00;;;;;;;24.44;67.50;99785.66;4263576;33;34649;-77
2022/07/24 02:13:44;;;;;;;11.95;7.95;;;;;;;23.66;70.06;99779.97;4261169;33;34501;-77
2022/07/24 02:16:31;;;;;;;12.40;8.02;;;;;;;23.22;71.70;99767.84;4254091;33;34702;-77
2022/07/24 02:19:17;;;;;;;17.37;9.13;;;;;;;23.25;71.14;99777.44;4246926;33;33233;-77
2022/07/24 02:22:04;;;;;;;10.30;7.50;;;;;;;23.49;71.31;99781.53;4259955;33;35535;-77
2022/07/24 02:24:50;;;;;;;12.37;8.30;;;;;;;23.74;69.61;99770.44;4265589;33;34974;-77
2022/07/24 02:27:37;;;;;;;10.88;8.00;;;;;;;22.62;73.39;99774.69;4264990;33;34919;-77
2022/07/24 02:30:24;;;;;;;12.15;8.35;;;;;;;22.26;77.90;99776.44;4264499;33;35365;-78
2022/07/24 02:33:11;;;;;;;10.07;6.93;;;;;;;22.47;75.36;99783.38;4264633;33;34657;-77
2022/07/24 02:35:57;;;;;;;12.30;7.20;;;;;;;22.77;70.54;99771.97;4266277;33;34974;-77
2022/07/24 02:38:43;;;;;;;13.25;7.55;;;;;;;23.02;70.63;99769.34;4256293;33;34347;-78
2022/07/24 02:41:30;;;;;;;10.75;6.80;;;;;;;22.89;69.34;99771.66;4267476;33;34244;-77
2022/07/24 02:44:16;;;;;;;8.70;6.62;;;;;;;23.04;68.10;99751.00;4267540;33;34249;-77
2022/07/24 02:47:02;;;;;;;10.82;6.97;;;;;;;23.29;67.57;99739.91;4261098;33;34649;-77
2022/07/24 02:49:49;;;;;;;11.98;7.12;;;;;;;23.50;66.22;99727.97;4266234;33;34300;-77
2022/07/24 02:52:35;;;;;;;10.35;6.80;;;;;;;23.11;67.87;99725.91;4236666;33;34229;-77
2022/07/24 02:55:21;;;;;;;11.57;8.07;;;;;;;23.45;65.56;99719.19;4261828;33;34783;-77
2022/07/24 02:58:07;;;;;;;11.93;6.97;;;;;;;23.46;65.77;99721.59;4256882;33;34611;-77
2022/07/24 03:00:54;;;;;;;10.57;7.53;;;;;;;23.35;66.50;99734.75;4254623;33;34244;-78
2022/07/24 03:03:40;;;;;;;10.68;6.85;;;;;;;23.40;66.72;99733.56;4256181;33;34212;-77
2022/07/24 03:06:26;;;;;;;11.77;6.65;;;;;;;23.63;66.07;99734.00;4261303;33;34245;-77
2022/07/24 03:09:12;;;;;;;9.93;7.47;;;;;;;24.38;62.81;99731.22;4254093;33;34917;-78
2022/07/24 03:11:59;;;;;;;11.90;7.75;;;;;;;23.56;65.41;99742.37;4254483;33;35468;-77
2022/07/24 03:14:45;;;;;;;11.05;6.68;;;;;;;23.28;67.39;99741.13;4262581;33;34122;-78
2022/07/24 03:17:32;;;;;;;9.88;7.30;;;;;;;23.53;66.37;99748.75;4267046;33;34709;-77
2022/07/24 03:20:19;;;;;;;10.27;7.62;;;;;;;23.46;66.30;99748.75;4266851;33;35922;-78
2022/07/24 03:23:05;;;;;;;11.27;7.12;;;;;;;22.88;69.62;99744.91;4255989;33;34665;-78
2022/07/24 03:25:54;;;;;;;9.13;6.97;;;;;;;22.84;69.25;99742.09;4265064;33;33969;-78
2022/07/24 03:28:40;;;;;;;9.43;7.28;;;;;;;23.12;67.12;99735.88;4254961;33;34604;-77
2022/07/24 03:31:27;;;;;;;12.40;6.87;;;;;;;23.24;66.37;99739.50;4254936;33;35989;-77
2022/07/24 03:34:13;;;;;;;8.75;6.18;;;;;;;23.53;64.93;99723.59;4255625;33;35421;-78
2022/07/24 03:37:00;;;;;;;10.20;6.70;;;;;;;24.11;62.36;99711.28;4264519;33;34219;-77
2022/07/24 03:39:46;;;;;;;9.95;6.90;;;;;;;24.16;61.55;99724.88;4259084;33;34131;-77
2022/07/24 03:42:33;;;;;;;10.07;6.80;;;;;;;24.07;61.59;99734.87;4254849;33;34943;-78
2022/07/24 03:45:19;;;;;;;9.95;6.95;;;;;;;24.55;59.36;99742.84;4252086;33;35121;-77
2022/07/24 03:48:06;;;;;;;10.48;7.15;;;;;;;23.76;62.11;99746.47;4252505;33;34999;-77
2022/07/24 03:50:52;;;;;;;11.02;7.20;;;;;;;23.26;64.82;99751.09;4254594;33;34309;-77
2022/07/24 03:53:39;;;;;;;11.60;6.90;;;;;;;22.73;67.66;99749.63;4261761;33;34576;-77
2022/07/24 03:56:26;;;;;;;9.60;7.05;;;;;;;22.51;68.81;99742.31;4262956;33;33601;-78
2022/07/24 03:59:13;;;;;;;12.23;6.90;;;;;;;22.74;68.38;99744.84;4254862;33;35147;-77
2022/07/24 04:01:59;;;;;;;11.63;7.10;;;;;;;22.53;69.24;99753.91;4245596;33;35507;-79
2022/07/24 04:04:46;;;;;;;9.75;6.90;;;;;;;22.57;69.52;99749.13;4255278;33;36136;-78
2022/07/24 04:07:32;;;;;;;9.95;6.50;;;;;;;22.51;69.24;99756.25;4256106;33;34645;-79
2022/07/24 04:10:18;;;;;;;10.10;7.07;;;;;;;22.46;69.47;99768.62;4255534;33;34791;-78
2022/07/24 04:13:04;;;;;;;14.98;7.20;;;;;;;22.44;69.74;99765.41;4257983;33;34695;-78
2022/07/24 04:15:51;;;;;;;9.77;6.72;;;;;;;22.72;69.17;99756.41;4255808;33;34612;-78
2022/07/24 04:18:38;;;;;;;9.90;7.30;;;;;;;22.88;68.69;99758.88;4258237;33;35799;-78
2022/07/24 04:21:25;;;;;;;11.32;7.18;;;;;;;22.75;69.08;99752.84;4255028;33;34440;-78
2022/07/24 04:24:11;;;;;;;13.25;7.30;;;;;;;23.08;67.23;99751.00;4254330;33;34159;-78
2022/07/24 04:26:58;;;;;;;10.40;7.40;;;;;;;22.85;68.56;99745.69;4254416;33;34713;-78
2022/07/24 04:29:44;;;;;;;11.07;7.15;;;;;;;23.34;66.76;99747.94;4256995;33;35446;-78
2022/07/24 04:32:31;;;;;;;12.75;7.43;;;;;;;23.02;67.79;99747.00;4260383;33;34243;-79
2022/07/24 04:35:17;;;;;;;13.20;7.43;;;;;;;23.26;67.33;99759.47;4243037;33;35523;-79
2022/07/24 04:38:04;;;;;;;10.25;7.05;;;;;;;23.39;66.70;99760.72;4260683;33;35641;-79
2022/07/24 04:40:50;;;;;;;10.20;7.32;;;;;;;23.99;64.70;99773.22;4257373;33;35408;-80
2022/07/24 04:43:36;;;;;;;11.38;7.78;;;;;;;23.47;66.61;99781.91;4254928;33;34275;-80
2022/07/24 04:46:23;;;;;;;12.75;7.62;;;;;;;23.62;66.22;99782.72;4258154;33;34623;-80
2022/07/24 04:49:09;;;;;;;9.60;7.28;;;;;;;23.53;66.19;99785.13;4253574;33;35279;-79
2022/07/24 04:51:55;;;;;;;12.45;8.02;;;;;;;23.56;66.05;99795.50;4245196;33;35456;-80
2022/07/24 04:54:42;;;;;;;11.55;7.05;;;;;;;23.02;68.34;99800.09;4257253;33;36607;-79
2022/07/24 04:57:28;;;;;;;11.10;7.72;;;;;;;23.41;67.28;99807.84;4255982;33;34653;-79
2022/07/24 05:00:15;;;;;;;10.07;7.90;;;;;;;23.52;67.01;99812.28;4253025;33;33995;-79
2022/07/24 05:03:01;;;;;;;12.43;8.43;;;;;;;23.32;68.39;99817.41;4253556;33;34266;-79
2022/07/24 05:05:47;;;;;;;13.65;8.10;;;;;;;23.48;67.50;99819.06;4253931;33;34303;-79
2022/07/24 05:08:34;;;;;;;12.55;7.90;;;;;;;23.52;67.69;99819.88;4253930;33;34190;-79
2022/07/24 05:11:20;;;;;;;13.62;7.75;;;;;;;23.29;69.20;99829.38;4264287;33;35968;-79
2022/07/24 05:14:07;;;;;;;10.60;7.70;;;;;;;23.38;69.42;99828.22;4253165;33;35810;-79
2022/07/24 05:16:53;;;;;;;12.77;8.98;;;;;;;23.31;69.70;99835.38;4255296;33;35278;-80
2022/07/24 05:19:40;;;;;;;10.55;8.18;;;;;;;22.99;70.81;99837.19;4254189;33;33434;-79
2022/07/24 05:22:26;;;;;;;13.43;8.27;;;;;;;23.05;71.78;99847.63;4256008;33;34529;-80
2022/07/24 05:25:12;;;;;;;14.10;8.38;;;;;;;23.08;71.78;99846.03;4258131;33;34646;-79
2022/07/24 05:27:59;;;;;;;11.35;8.05;;;;;;;23.27;70.94;99848.53;4256690;33;34790;-79
2022/07/24 05:30:45;;;;;;;14.27;8.50;;;;;;;23.98;67.59;99855.59;4263072;33;35578;-81
2022/07/24 05:33:31;;;;;;;10.80;8.48;;;;;;;23.28;70.82;99855.75;4253129;33;36293;-81
2022/07/24 05:36:18;;;;;;;10.80;8.57;;;;;;;23.85;68.79;99854.34;4258673;33;35620;-81
2022/07/24 05:39:05;;;;;;;11.25;8.88;;;;;;;23.74;68.41;99857.94;4260198;33;34193;-81
2022/07/24 05:41:52;;;;;;;13.18;9.00;;;;;;;23.59;68.85;99859.03;4244461;33;34682;-81
2022/07/24 05:44:38;;;;;;;11.18;8.98;;;;;;;23.74;68.45;99860.75;4260381;33;34984;-81
2022/07/24 05:47:24;;;;;;;10.90;9.13;;;;;;;23.92;68.01;99851.59;4255583;33;34755;-81
2022/07/24 05:50:12;;;;;;;13.85;9.23;;;;;;;24.04;67.11;99859.59;4256672;33;34915;-82
2022/07/24 05:52:59;;;;;;;14.10;9.75;;;;;;;24.15;66.53;99856.84;4251261;33;34216;-81
2022/07/24 05:55:45;;;;;;;13.70;9.55;;;;;;;23.88;68.05;99859.16;4261649;33;34627;-81
2022/07/24 05:58:32;;;;;;;11.45;9.32;;;;;;;24.13;66.87;99860.00;4253619;33;35183;-81
2022/07/24 06:01:18;;;;;;;13.25;9.73;;;;;;;24.25;66.78;99861.66;4246829;33;34150;-81
2022/07/24 06:04:05;;;;;;;13.23;10.07;;;;;;;24.62;66.17;99855.69;4253479;33;34702;-81
2022/07/24 06:06:51;;;;;;;12.18;9.38;;;;;;;24.72;64.27;99856.87;4257530;33;34789;-81
2022/07/24 06:09:38;;;;;;;12.05;9.82;;;;;;;24.53;66.36;99857.28;4256279;33;35791;-82
2022/07/24 06:12:25;;;;;;;14.27;10.13;;;;;;;25.08;63.44;99857.63;4243973;33;34359;-80
2022/07/24 06:15:12;;;;;;;14.57;10.07;;;;;;;25.08;63.33;99863.22;4248526;33;35621;-81
2022/07/24 06:17:58;;;;;;;12.93;10.10;;;;;;;25.32;63.20;99863.56;4266573;33;34863;-80
2022/07/24 06:20:45;;;;;;;11.85;10.48;;;;;;;25.05;64.18;99869.63;4255310;33;35601;-80
2022/07/24 06:23:34;;;;;;;12.70;11.02;;;;;;;24.50;65.91;99872.88;4258356;33;35274;-81
2022/07/24 06:26:20;;;;;;;13.00;10.52;;;;;;;24.85;64.74;99874.88;4257427;33;35585;-80
2022/07/24 06:29:07;;;;;;;14.20;10.70;;;;;;;24.73;65.41;99877.28;4260064;33;35222;-81
2022/07/24 06:32:05;;;;;;;13.93;10.40;;;;;;;24.66;64.76;99881.69;4252957;33;34644;-80
2022/07/24 06:34:51;;;;;;;13.45;10.20;;;;;;;24.78;65.14;99885.28;4259459;33;33688;-80
2022/07/24 06:37:37;;;;;;;13.98;11.38;;;;;;;24.98;64.01;99880.06;4264347;33;34478;-81
2022/07/24 06:40:34;;;;;;;16.05;11.30;;;;;;;24.85;64.26;99890.91;4258027;33;35062;-80
2022/07/24 06:43:20;;;;;;;17.92;11.27;;;;;;;25.17;63.19;99890.06;4247346;33;35430;-80
2022/07/24 06:46:07;;;;;;;13.10;10.80;;;;;;;25.28;62.36;99888.03;4250778;33;35136;-81
2022/07/24 06:48:53;;;;;;;15.05;11.82;;;;;;;25.42;62.18;99898.41;4257587;33;35596;-81
2022/07/24 06:51:39;;;;;;;14.63;11.35;;;;;;;25.32;61.24;99895.22;4244809;33;34907;-80
2022/07/24 06:54:26;;;;;;;17.80;12.65;;;;;;;25.35;62.74;99896.41;4257334;33;35297;-80
2022/07/24 06:57:13;;;;;;;15.65;12.45;;;;;;;25.70;60.88;99908.72;4268119;33;34212;-81
2022/07/24 06:59:59;;;;;;;14.77;12.02;;;;;;;25.90;60.41;99901.44;4252497;33;34622;-81
2022/07/24 07:02:46;;;;;;;13.93;12.02;;;;;;;25.49;61.40;99895.56;4245000;33;35630;-81
2022/07/24 07:05:32;;;;;;;17.25;12.65;;;;;;;25.89;60.51;99908.25;4262893;33;35699;-82
2022/07/24 07:08:19;;;;;;;15.98;12.90;;;;;;;25.77;59.74;99909.50;4266346;33;35094;-81
2022/07/24 07:11:05;;;;;;;14.63;12.60;;;;;;;25.79;58.85;99903.47;4261388;33;34583;-81
2022/07/24 07:13:51;;;;;;;16.15;13.02;;;;;;;25.63;59.01;99903.16;4256121;33;34658;-80
2022/07/24 07:16:38;;;;;;;14.00;12.00;;;;;;;25.78;58.62;99904.66;4264311;33;34395;-80
2022/07/24 07:19:24;;;;;;;14.05;12.02;;;;;;;25.88;57.50;99909.47;4257372;33;34112;-79
2022/07/24 07:22:10;;;;;;;14.07;12.10;;;;;;;26.40;56.06;99912.38;4256466;33;35556;-80
2022/07/24 07:24:57;;;;;;;18.30;12.25;;;;;;;26.44;56.93;99907.53;4260526;33;34670;-83
2022/07/24 07:27:43;;;;;;;17.30;13.45;;;;;;;26.57;56.47;99907.06;4261816;33;35526;-80
2022/07/24 07:30:30;;;;;;;17.17;13.43;;;;;;;26.38;56.38;99909.19;4256282;33;34216;-81
2022/07/24 07:33:16;;;;;;;15.13;12.43;;;;;;;26.42;57.12;99914.78;4243588;33;34207;-79
2022/07/24 07:36:03;;;;;;;14.20;12.52;;;;;;;26.90;54.96;99912.00;4251290;33;35062;-78
2022/07/24 07:38:49;;;;;;;15.45;13.00;;;;;;;27.12;53.16;99903.34;4253098;33;34535;-80
2022/07/24 07:41:36;;;;;;;17.83;12.73;;;;;;;27.14;52.60;99898.91;4267117;33;33994;-81
2022/07/24 07:44:23;;;;;;;14.52;13.02;;;;;;;27.06;52.23;99910.63;4256824;33;34524;-79
2022/07/24 07:47:09;;;;;;;13.98;12.57;;;;;;;27.28;50.74;99905.62;4259935;33;34495;-80
2022/07/24 07:49:56;;;;;;;13.23;11.77;;;;;;;26.82;50.93;99902.03;4254405;33;34293;-79
2022/07/24 07:52:43;;;;;;;13.75;11.68;;;;;;;27.20;50.80;99918.97;4254597;33;34208;-79
2022/07/24 07:55:29;;;;;;;14.93;12.05;;;;;;;27.30;50.20;99903.19;4260331;33;35663;-80
2022/07/24 07:58:16;;;;;;;13.70;12.10;;;;;;;26.85;49.95;99908.84;4245358;33;34936;-79
2022/07/24 08:01:02;;;;;;;13.77;12.25;;;;;;;27.20;48.62;99913.34;4261172;33;35674;-79
2022/07/24 08:03:49;;;;;;;12.68;11.35;;;;;;;27.58;49.04;99905.69;4257241;33;34018;-80
2022/07/24 08:06:35;;;;;;;12.80;11.07;;;;;;;28.05;47.36;99907.13;4254276;33;34690;-80
2022/07/24 08:09:21;;;;;;;13.00;11.45;;;;;;;27.72;45.99;99910.34;4253827;33;34894;-80
2022/07/24 08:12:08;;;;;;;13.85;11.68;;;;;;;28.03;45.96;99902.72;4253335;33;34740;-81
2022/07/24 08:15:01;;;;;;;12.70;10.98;;;;;;;27.32;47.38;99910.00;4259394;33;34012;-80
2022/07/24 08:17:55;;;;;;;14.32;11.35;;;;;;;27.29;46.21;99910.81;4266890;33;34619;-81
2022/07/24 08:20:43;;;;;;;15.95;11.80;;;;;;;27.30;46.95;99911.63;4251919;33;34524;-79
2022/07/24 08:23:30;;;;;;;14.25;11.40;;;;;;;27.26;48.11;99905.25;4254590;33;34754;-78
2022/07/24 08:26:16;;;;;;;14.45;12.30;;;;;;;27.22;48.15;99915.75;4257790;33;34990;-79
2022/07/24 08:29:02;;;;;;;14.45;12.93;;;;;;;27.06;49.31;99919.06;4253022;33;34616;-79
2022/07/24 08:31:50;;;;;;;18.10;14.45;;;;;;;26.97;49.27;99922.38;4249221;33;34962;-79
2022/07/24 08:34:36;;;;;;;14.00;12.60;;;;;;;27.05;48.64;99917.47;4256468;33;34257;-81
2022/07/24 08:37:22;;;;;;;15.55;12.35;;;;;;;27.06;48.89;99914.25;4255403;33;35140;-81
2022/07/24 08:40:10;;;;;;;14.35;12.55;;;;;;;27.35;48.44;99922.41;4237321;33;34212;-79
2022/07/24 08:42:57;;;;;;;12.63;11.32;;;;;;;27.53;47.80;99925.84;4254601;33;34998;-79
2022/07/24 08:45:46;;;;;;;14.00;12.60;;;;;;;28.05;45.25;99922.00;4248161;33;34651;-83
2022/07/24 08:48:33;;;;;;;13.95;11.52;;;;;;;27.83;45.68;99932.75;4251426;33;34304;-82
2022/07/24 08:51:19;;;;;;;13.68;11.02;;;;;;;27.69;46.15;99922.44;4244372;33;35465;-81
2022/07/24 08:54:06;;;;;;;14.18;10.98;;;;;;;27.88;45.54;99934.28;4249786;33;36463;-81
2022/07/24 08:56:53;;;;;;;12.57;11.15;;;;;;;27.89;45.28;99930.25;4243835;33;34859;-80
2022/07/24 08:59:39;;;;;;;14.50;10.32;;;;;;;27.63;44.68;99931.75;4253288;33;34378;-80
2022/07/24 09:02:27;;;;;;;13.35;11.10;;;;;;;27.78;43.24;99924.75;4251893;33;34530;-80
2022/07/24 09:05:13;;;;;;;14.18;11.32;;;;;;;27.66;43.85;99923.25;4248722;33;34654;-80
2022/07/24 09:08:10;;;;;;;12.37;10.80;;;;;;;28.18;43.31;99928.66;4236782;33;33933;-80
2022/07/24 09:10:59;;;;;;;16.90;11.75;;;;;;;28.00;43.49;99930.91;4249645;33;33935;-80
2022/07/24 09:16:52;;;;;;;12.63;11.25;;;;;;;28.24;43.38;99926.97;4248342;33;35909;-80
2022/07/24 09:20:07;;;;;;;12.55;11.25;;;;;;;28.32;43.20;99926.84;4258677;33;33743;-81
2022/07/24 09:22:58;;;;;;;12.40;10.95;;;;;;;28.43;42.30;99945.22;4248100;33;34161;-79
2022/07/24 09:25:53;;;;;;;12.80;11.20;;;;;;;28.91;40.99;99937.59;4245465;33;34146;-80
2022/07/24 09:28:51;;;;;;;13.90;10.30;;;;;;;28.38;41.70;99940.03;4252852;33;35417;-82
2022/07/24 09:32:00;;;;;;;12.57;11.30;;;;;;;28.60;40.49;99934.09;4242550;33;34245;-81
2022/07/24 09:34:51;;;;;;;11.30;10.10;;;;;;;28.68;40.86;99946.84;4254137;33;33851;-81
2022/07/24 09:37:38;;;;;;;11.63;10.25;;;;;;;28.82;40.34;99940.19;4241523;33;35299;-82
2022/07/24 09:40:33;;;;;;;12.60;10.85;;;;;;;29.76;39.23;99945.75;4252658;33;36647;-81
2022/07/24 09:43:30;;;;;;;11.82;10.63;;;;;;;29.49;38.64;99948.69;4256366;33;34522;-80
2022/07/24 09:46:23;;;;;;;12.23;10.93;;;;;;;28.68;40.55;99950.47;4257440;33;34147;-79
2022/07/24 09:49:19;;;;;;;12.00;10.80;;;;;;;28.74;40.55;99953.59;4248449;33;34752;-78
2022/07/24 09:52:05;;;;;;;10.70;9.60;;;;;;;28.73;39.93;99948.41;4240616;33;34588;-80
2022/07/24 09:54:52;;;;;;;10.63;8.35;;;;;;;28.87;37.74;99953.81;4255015;33;37617;-78
2022/07/24 09:57:38;;;;;;;10.80;9.70;;;;;;;28.73;36.25;99949.19;4252482;33;34249;-80
2022/07/24 10:00:25;;;;;;;12.02;10.57;;;;;;;28.76;38.36;99950.34;4250460;33;34606;-80
2022/07/24 10:03:14;;;;;;;15.25;9.13;;;;;;;28.93;38.40;99957.72;4259160;33;35837;-79
2022/07/24 10:06:03;;;;;;;11.68;9.55;;;;;;;29.13;36.07;99952.97;4242577;33;34477;-79
2022/07/24 10:08:51;;;;;;;10.05;8.93;;;;;;;28.84;37.64;99961.09;4244122;33;34716;-76
2022/07/24 10:11:38;;;;;;;13.32;9.95;;;;;;;28.63;38.02;99947.31;4244951;33;34509;-75
2022/07/24 10:14:25;;;;;;;12.30;9.70;;;;;;;28.77;37.88;99935.03;4248991;33;34690;-76
2022/07/24 10:17:13;;;;;;;11.88;9.52;;;;;;;28.73;38.58;99945.56;4256563;33;34968;-78
2022/07/24 10:20:10;;;;;;;10.35;9.15;;;;;;;29.39;37.96;99942.00;4251960;33;34794;-80
2022/07/24 10:23:25;;;;;;;10.82;8.48;;;;;;;29.31;37.35;99944.16;4255978;33;34231;-78
2022/07/24 10:26:16;;;;;;;9.98;8.90;;;;;;;28.99;36.19;99941.09;4254241;33;35154;-77
2022/07/24 10:29:23;;;;;;;11.82;8.70;;;;;;;29.46;34.80;99939.06;4243389;33;34608;-78
2022/07/24 10:32:10;;;;;;;10.68;8.73;;;;;;;28.55;37.00;99943.84;4258154;33;34137;-78
2022/07/24 10:35:15;;;;;;;9.75;8.63;;;;;;;28.77;36.48;99938.63;4253461;33;34700;-79
2022/07/24 10:38:04;;;;;;;12.15;8.60;;;;;;;28.81;36.82;99945.03;4259118;33;35582;-80
2022/07/24 10:40:53;;;;;;;11.45;9.20;;;;;;;28.46;36.41;99957.66;4258227;33;34318;-78
2022/07/24 10:43:40;;;;;;;9.48;8.40;;;;;;;29.03;36.29;99945.50;4255481;33;34185;-78
2022/07/24 10:46:29;;;;;;;9.38;8.35;;;;;;;28.99;35.18;99947.53;4244510;33;34580;-79
2022/07/24 10:49:42;;;;;;;11.80;8.13;;;;;;;29.05;35.52;99937.38;4260562;33;34966;-79
2022/07/24 10:52:32;;;;;;;11.05;8.40;;;;;;;28.88;36.29;99944.91;4255867;33;34684;-78
2022/07/24 10:55:24;;;;;;;11.32;8.63;;;;;;;29.27;34.71;99942.66;4250648;33;34508;-78
2022/07/24 10:58:22;;;;;;;10.23;8.13;;;;;;;29.28;34.58;99932.94;4255975;33;34878;-79
2022/07/24 11:01:34;;;;;;;10.52;7.78;;;;;;;29.37;32.82;99938.81;4250030;33;34970;-77
2022/07/24 11:04:23;;;;;;;9.70;8.70;;;;;;;29.74;32.92;99928.44;4254111;33;34633;-78
2022/07/24 11:07:13;;;;;;;12.98;9.15;;;;;;;29.19;34.35;99922.22;4254568;33;34944;-78
2022/07/24 11:10:01;;;;;;;8.50;7.50;;;;;;;29.77;34.00;99924.75;4257004;33;34667;-79
2022/07/24 11:12:47;;;;;;;11.73;7.62;;;;;;;29.10;32.64;99930.47;4246532;33;36138;-79
2022/07/24 11:16:12;;;;;;;9.30;7.45;;;;;;;29.28;31.73;99916.00;4234768;33;34508;-78
2022/07/24 11:18:59;;;;;;;10.05;7.90;;;;;;;29.00;33.17;99926.59;4249401;33;34096;-79
2022/07/24 11:21:49;;;;;;;8.80;7.70;;;;;;;28.56;34.19;99928.50;4249789;33;36417;-79
2022/07/24 11:24:35;;;;;;;8.35;7.55;;;;;;;29.05;32.50;99917.63;4239462;33;35375;-78
2022/07/24 11:27:22;;;;;;;8.52;7.22;;;;;;;29.80;33.00;99918.25;4254084;33;119612;-78
2022/07/24 11:30:10;;;;;;;7.62;6.25;;;;;;;30.19;31.35;99910.91;4247598;33;34630;-77
2022/07/24 11:32:59;;;;;;;7.57;6.45;;;;;;;30.69;28.26;99918.25;4259191;33;34612;-79
2022/07/24 11:35:46;;;;;;;9.75;6.87;;;;;;;30.23;28.52;99912.47;4254583;33;35646;-78
2022/07/24 11:38:32;;;;;;;8.73;6.62;;;;;;;30.66;29.33;99910.66;4253950;33;34413;-80
2022/07/24 11:41:18;;;;;;;8.25;6.20;;;;;;;30.74;29.29;99914.06;4253182;33;34116;-79
2022/07/24 11:44:04;;;;;;;7.80;6.25;;;;;;;30.03;29.35;99898.34;4260808;33;34376;-78
2022/07/24 11:46:52;;;;;;;7.22;5.80;;;;;;;30.73;28.30;99907.63;4254963;33;35896;-78
2022/07/24 11:49:47;;;;;;;7.15;5.72;;;;;;;31.21;28.28;99917.31;4260633;33;35823;-79
2022/07/24 11:52:41;;;;;;;10.75;5.85;;;;;;;30.02;28.05;99910.09;4254203;33;35739;-78
2022/07/24 11:55:29;;;;;;;6.72;5.78;;;;;;;30.32;27.31;99894.91;4247761;33;34493;-79
2022/07/24 11:58:17;;;;;;;8.82;6.37;;;;;;;30.20;28.29;99899.19;4255425;33;33822;-79
2022/07/24 12:01:24;;;;;;;8.15;6.32;;;;;;;30.63;28.10;99900.22;4240828;33;34697;-79
2022/07/24 12:04:10;;;;;;;8.38;6.15;;;;;;;30.38;28.39;99895.16;4258507;33;33865;-81
2022/07/24 12:06:56;;;;;;;8.23;5.32;;;;;;;30.58;27.00;99884.56;4238623;33;35491;-80
2022/07/24 12:09:47;;;;;;;8.55;6.00;;;;;;;30.46;27.12;99885.28;4265085;33;35748;-80
2022/07/24 12:12:35;;;;;;;;;;;;;;;30.76;26.12;99895.41;4249275;33;34821;-79
2022/07/24 12:15:24;;;;;;;6.43;5.50;;;;;;;30.70;25.77;99885.88;4241347;33;34038;-79
2022/07/24 12:18:11;;;;;;;8.13;4.62;;;;;;;31.23;25.37;99886.53;4242268;33;34408;-77
2022/07/24 12:21:00;;;;;;;7.95;4.90;;;;;;;31.08;23.75;99885.31;4251722;33;35653;-77
2022/07/24 12:23:46;;;;;;;7.12;5.47;;;;;;;30.86;22.90;99887.94;4251244;33;36024;-78
2022/07/24 12:26:33;;;;;;;5.57;4.70;;;;;;;31.34;24.24;99884.19;4252137;33;34209;-78
2022/07/24 12:29:20;;;;;;;6.25;4.93;;;;;;;31.39;24.25;99885.69;4251806;33;34539;-78
2022/07/24 12:32:17;;;;;;;6.80;5.65;;;;;;;31.63;24.48;99869.25;4235830;33;34504;-78
2022/07/24 12:35:10;;;;;;;5.30;4.60;;;;;;;31.75;25.35;99871.28;4251051;33;34592;-77
2022/07/24 12:38:05;;;;;;;5.47;4.72;;;;;;;31.61;24.43;99883.06;4251654;33;33971;-76
2022/07/24 12:40:51;;;;;;;7.75;4.53;;;;;;;31.19;23.25;99874.50;4239937;33;34720;-77
2022/07/24 12:44:00;;;;;;;9.77;4.87;;;;;;;31.05;22.42;99863.56;4253985;33;34966;-76
2022/07/24 12:46:47;;;;;;;6.45;4.25;;;;;;;31.31;22.74;99870.16;4252704;33;33515;-77
2022/07/24 12:49:41;;;;;;;6.12;4.68;;;;;;;31.18;22.51;99878.59;4256211;33;34337;-75
2022/07/24 12:52:28;;;;;;;5.70;3.78;;;;;;;30.51;22.38;99884.75;4256733;33;34632;-77
2022/07/24 12:55:20;;;;;;;5.12;4.40;;;;;;;31.66;21.19;99868.34;4255495;33;35015;-78
2022/07/24 12:58:07;;;;;;;;;;;;;;;32.51;19.78;99866.94;4232078;33;34188;-78
2022/07/24 13:00:57;;;;;;;7.12;4.07;;;;;;;31.90;20.88;99870.84;4254352;33;34980;-75
2022/07/24 13:04:11;;;;;;;4.82;4.25;;;;;;;32.01;20.53;99851.53;4243933;33;34952;-77